Time;durP1;ratioP1;P1;durP2;ratioP2;P2;SDS_P1;SDS_P2;PMS_P1;PMS_P2;Temp;Humidity;BMP_temperature;BMP_pressure;BME280_temperature;BME280_humidity;BME280_pressure;Samples;Min_cycle;Max_cycle;Signal;HPM_P1;HPM_P2
2023/05/22 00:00:35;;;;;;;14.45;11.65;;;;;;;15.94;51.85;101633.78;5086272;28;20054;-70
2023/05/22 00:03:02;;;;;;;18.35;12.48;;;;;;;15.97;51.47;101628.34;5076245;27;20138;-70
2023/05/22 00:05:29;;;;;;;13.48;11.57;;;;;;;15.88;51.67;101629.66;5079086;27;20749;-71
2023/05/22 00:07:54;;;;;;;16.50;11.15;;;;;;;15.83;51.87;101631.69;5063686;28;20131;-71
2023/05/22 00:10:20;;;;;;;15.13;11.02;;;;;;;15.79;51.84;101622.22;5079458;28;20046;-71
2023/05/22 00:12:46;;;;;;;14.18;10.80;;;;;;;15.74;51.97;101621.63;5080863;28;20116;-71
2023/05/22 00:15:11;;;;;;;16.80;11.43;;;;;;;15.70;52.07;101625.34;5080364;28;20035;-70
2023/05/22 00:17:37;;;;;;;19.38;11.07;;;;;;;15.73;51.98;101615.50;5079018;28;20071;-70
2023/05/22 00:20:09;;;;;;;16.00;11.43;;;;;;;15.66;52.10;101615.88;5081120;28;20952;-71
2023/05/22 00:22:35;;;;;;;15.13;11.02;;;;;;;15.70;51.86;101609.53;5078606;28;20043;-71
2023/05/22 00:25:02;;;;;;;16.55;11.48;;;;;;;15.64;52.07;101609.81;5079130;27;20931;-71
2023/05/22 00:27:28;;;;;;;15.02;11.70;;;;;;;15.72;51.79;101607.66;5070615;27;20117;-72
2023/05/22 00:29:53;;;;;;;14.45;10.65;;;;;;;15.72;51.59;101599.75;5060583;28;20565;-71
2023/05/22 00:32:19;;;;;;;15.48;11.63;;;;;;;15.63;52.18;101597.59;5061117;28;20067;-71
2023/05/22 00:34:44;;;;;;;17.33;12.13;;;;;;;15.61;52.29;101596.81;5060695;28;20034;-69
2023/05/22 00:37:10;;;;;;;16.30;10.23;;;;;;;15.67;51.90;101591.25;5039629;28;20465;-71
2023/05/22 00:39:35;;;;;;;14.20;11.27;;;;;;;15.46;52.26;101590.50;5055776;28;20498;-71
2023/05/22 00:42:01;;;;;;;12.40;10.25;;;;;;;15.56;51.85;101582.06;5058749;27;20040;-70
2023/05/22 00:44:28;;;;;;;14.75;11.25;;;;;;;15.52;51.97;101580.53;5053187;28;20181;-69
2023/05/22 00:46:53;;;;;;;17.25;10.73;;;;;;;15.56;52.27;101581.22;5058925;28;20489;-71
2023/05/22 00:49:19;;;;;;;18.60;11.10;;;;;;;15.53;51.81;101579.59;5059803;28;20028;-71
2023/05/22 00:51:45;;;;;;;12.68;10.15;;;;;;;15.45;51.88;101573.00;5066655;28;20033;-69
2023/05/22 00:54:12;;;;;;;20.77;11.80;;;;;;;15.34;52.21;101570.91;5067996;28;20375;-69
2023/05/22 00:56:39;;;;;;;13.27;10.23;;;;;;;15.31;52.18;101571.06;5043093;28;20046;-71
2023/05/22 00:59:05;;;;;;;13.77;10.35;;;;;;;15.31;52.54;101563.16;5091255;27;20063;-71
2023/05/22 01:01:32;;;;;;;17.05;11.82;;;;;;;15.28;52.51;101566.81;5081628;27;20036;-70
2023/05/22 01:04:03;;;;;;;13.85;9.93;;;;;;;15.17;52.84;101569.06;5091359;27;20067;-71
2023/05/22 01:06:30;;;;;;;18.15;11.18;;;;;;;15.17;52.53;101569.06;5086811;27;20031;-70
2023/05/22 01:08:57;;;;;;;13.30;10.57;;;;;;;15.12;52.77;101563.16;5096700;27;20047;-70
2023/05/22 01:11:47;;;;;;;16.25;11.63;;;;;;;15.02;53.15;101568.03;5081096;27;20221;-69
2023/05/22 01:14:15;;;;;;;16.30;11.30;;;;;;;15.07;52.98;101567.81;5091396;27;20040;-70
2023/05/22 01:17:27;;;;;;;17.25;11.45;;;;;;;15.10;52.92;101568.53;5056747;28;20606;-70
2023/05/22 01:20:13;;;;;;;12.00;10.15;;;;;;;15.07;52.83;101568.66;5015971;28;22368;-72
2023/05/22 01:22:48;;;;;;;14.30;10.68;;;;;;;15.18;52.39;101568.97;5057732;27;20076;-71
2023/05/22 01:25:55;;;;;;;13.40;10.52;;;;;;;15.16;52.33;101565.56;5058939;28;20036;-70
2023/05/22 01:29:02;;;;;;;13.48;9.77;;;;;;;15.13;52.46;101571.00;5061753;27;20041;-70
2023/05/22 01:31:30;;;;;;;13.77;9.88;;;;;;;15.04;52.60;101563.53;5060257;28;20112;-69
2023/05/22 01:33:59;;;;;;;12.38;10.07;;;;;;;14.99;52.66;101560.25;5060812;27;20033;-69
2023/05/22 01:36:35;;;;;;;18.77;11.02;;;;;;;14.96;52.78;101555.16;5059611;28;20082;-69
2023/05/22 01:39:04;;;;;;;12.63;10.60;;;;;;;14.93;52.89;101550.03;5076581;27;20130;-70
2023/05/22 01:41:31;;;;;;;14.85;10.98;;;;;;;14.87;52.77;101547.69;5066143;28;20043;-71
2023/05/22 01:43:57;;;;;;;13.55;10.63;;;;;;;14.92;52.88;101548.31;5061118;27;20036;-71
2023/05/22 01:46:27;;;;;;;13.85;10.65;;;;;;;14.80;53.34;101548.91;5057411;28;20043;-70
2023/05/22 01:48:53;;;;;;;17.05;10.10;;;;;;;14.90;52.74;101550.16;5057472;27;20050;-73
2023/05/22 01:51:32;;;;;;;13.85;10.15;;;;;;;14.88;52.86;101546.75;5046857;28;20506;-69
2023/05/22 01:54:13;;;;;;;13.60;10.80;;;;;;;14.87;53.18;101551.19;5070704;27;20134;-70
2023/05/22 01:56:47;;;;;;;12.38;11.07;;;;;;;14.82;53.37;101544.44;5058073;28;20044;-69
2023/05/22 01:59:22;;;;;;;16.63;10.73;;;;;;;14.89;53.02;101543.22;5045564;28;20572;-70
2023/05/22 02:01:50;;;;;;;17.48;11.63;;;;;;;14.83;52.94;101548.75;5043336;28;20036;-70
2023/05/22 02:04:18;;;;;;;14.25;10.50;;;;;;;14.82;52.97;101544.44;5055620;28;20052;-69
2023/05/22 02:06:45;;;;;;;16.65;11.40;;;;;;;14.86;52.97;101548.63;5056877;28;20020;-71
2023/05/22 02:09:13;;;;;;;13.07;10.13;;;;;;;14.87;52.87;101545.06;5064032;27;20040;-70
2023/05/22 02:11:40;;;;;;;12.45;10.10;;;;;;;14.82;52.67;101539.19;5072058;27;20079;-69
2023/05/22 02:14:07;;;;;;;13.50;10.25;;;;;;;14.83;53.07;101539.09;5056949;27;20051;-70
2023/05/22 02:16:33;;;;;;;12.85;10.23;;;;;;;14.89;52.78;101540.59;5076561;28;20548;-72
2023/05/22 02:19:04;;;;;;;14.23;11.30;;;;;;;14.81;52.71;101540.09;5057502;28;20044;-69
2023/05/22 02:21:34;;;;;;;17.05;10.27;;;;;;;14.85;52.85;101541.66;5061622;28;20147;-73
2023/05/22 02:24:01;;;;;;;11.60;10.25;;;;;;;14.98;52.64;101537.50;5056448;27;20586;-72
2023/05/22 02:26:27;;;;;;;15.73;9.88;;;;;;;15.03;52.55;101529.38;5074529;27;20133;-71
2023/05/22 02:28:52;;;;;;;15.93;10.38;;;;;;;15.04;52.34;101531.94;5057718;28;20960;-72
2023/05/22 02:31:18;;;;;;;13.02;10.20;;;;;;;15.08;52.54;101533.50;5060902;28;20023;-72
2023/05/22 02:33:43;;;;;;;16.75;10.63;;;;;;;15.07;52.24;101531.78;5042246;28;20044;-71
2023/05/22 02:36:11;;;;;;;12.95;10.00;;;;;;;15.13;52.27;101541.19;5074629;28;20032;-71
2023/05/22 02:38:38;;;;;;;14.77;11.27;;;;;;;15.14;51.68;101538.47;5067206;28;20043;-71
2023/05/22 02:41:03;;;;;;;12.75;10.38;;;;;;;15.22;51.42;101537.28;5078603;27;20215;-70
2023/05/22 02:43:31;;;;;;;14.48;10.93;;;;;;;15.22;51.61;101532.03;5065827;28;20412;-69
2023/05/22 02:45:56;;;;;;;13.35;9.88;;;;;;;15.19;51.74;101535.59;5068268;28;20042;-72
2023/05/22 02:48:21;;;;;;;16.25;10.80;;;;;;;15.18;51.93;101529.47;5078028;28;20302;-69
2023/05/22 02:50:47;;;;;;;14.27;10.02;;;;;;;15.14;52.00;101527.94;5079367;28;20061;-72
2023/05/22 02:53:14;;;;;;;14.48;10.90;;;;;;;15.14;51.75;101533.19;5077039;28;20048;-73
2023/05/22 02:55:40;;;;;;;17.90;11.15;;;;;;;15.00;52.10;101525.13;5068254;28;20081;-71
2023/05/22 02:58:10;;;;;;;13.10;10.13;;;;;;;14.97;51.92;101535.81;5083960;28;20444;-73
2023/05/22 03:00:39;;;;;;;13.68;9.77;;;;;;;14.92;52.14;101527.25;5073733;28;20499;-72
2023/05/22 03:03:05;;;;;;;14.00;11.32;;;;;;;15.01;51.49;101521.56;5095218;27;20555;-71
2023/05/22 03:05:31;;;;;;;12.85;11.00;;;;;;;14.86;51.99;101522.31;5075481;28;20059;-72
2023/05/22 03:07:57;;;;;;;14.15;10.98;;;;;;;14.84;51.92;101521.53;5076819;28;20138;-73
2023/05/22 03:10:23;;;;;;;12.07;10.43;;;;;;;14.55;52.61;101524.59;5069531;28;20408;-72
2023/05/22 03:12:53;;;;;;;13.80;10.63;;;;;;;14.71;51.89;101519.47;5078101;28;20040;-71
2023/05/22 03:15:19;;;;;;;15.57;10.85;;;;;;;14.62;52.49;101532.22;5095390;27;20577;-71
2023/05/22 03:17:45;;;;;;;13.57;11.15;;;;;;;14.59;52.72;101519.19;5075300;28;20039;-72
2023/05/22 03:20:15;;;;;;;15.73;11.05;;;;;;;14.59;52.67;101521.81;5085176;28;20090;-71
2023/05/22 03:22:41;;;;;;;12.45;10.95;;;;;;;14.71;52.36;101522.09;5071491;28;20246;-72
2023/05/22 03:25:08;;;;;;;12.40;10.43;;;;;;;14.66;52.55;101516.22;5080668;28;20132;-71
2023/05/22 03:27:34;;;;;;;15.40;10.93;;;;;;;14.66;52.41;101524.09;5071658;28;20036;-72
2023/05/22 03:30:04;;;;;;;13.95;9.95;;;;;;;14.70;52.44;101522.16;5076031;28;20112;-72
2023/05/22 03:32:31;;;;;;;15.10;10.27;;;;;;;14.65;52.42;101517.13;5082105;27;20100;-71
2023/05/22 03:34:57;;;;;;;14.38;10.68;;;;;;;14.63;52.63;101520.75;5092459;27;20062;-71
2023/05/22 03:37:23;;;;;;;13.93;10.20;;;;;;;14.63;52.83;101532.13;5082974;27;20031;-71
2023/05/22 03:39:48;;;;;;;13.50;10.30;;;;;;;14.65;52.68;101519.75;5062063;28;20036;-71
2023/05/22 03:42:23;;;;;;;16.13;10.77;;;;;;;14.63;52.75;101518.13;5057331;28;20123;-71
2023/05/22 03:44:49;;;;;;;14.15;9.95;;;;;;;14.58;52.66;101517.50;5077750;28;20169;-72
2023/05/22 03:47:15;;;;;;;16.20;10.40;;;;;;;14.59;52.59;101514.81;5075060;27;20521;-71
2023/05/22 03:49:41;;;;;;;14.25;11.48;;;;;;;14.49;52.75;101514.38;5061988;28;20039;-72
2023/05/22 03:52:09;;;;;;;17.45;10.85;;;;;;;14.37;53.24;101509.66;5079766;28;20040;-70
2023/05/22 03:54:36;;;;;;;14.60;10.48;;;;;;;14.33;53.42;101514.19;5059095;28;20035;-70
2023/05/22 03:57:02;;;;;;;14.25;10.23;;;;;;;14.34;53.39;101515.91;5081256;28;20032;-72
2023/05/22 03:59:27;;;;;;;12.27;10.13;;;;;;;14.40;53.43;101519.16;5076441;28;20481;-71
2023/05/22 04:01:56;;;;;;;18.58;10.75;;;;;;;14.38;53.52;101515.75;5091246;27;20141;-69
2023/05/22 04:04:25;;;;;;;16.08;11.35;;;;;;;14.42;53.30;101510.31;5056827;27;20071;-71
2023/05/22 04:06:51;;;;;;;16.00;11.20;;;;;;;14.54;53.00;101506.25;5073684;28;21521;-71
2023/05/22 04:09:17;;;;;;;15.73;12.02;;;;;;;14.53;53.19;101517.72;5057710;28;20029;-70
2023/05/22 04:11:43;;;;;;;13.60;10.82;;;;;;;14.63;52.49;101520.75;5056630;28;20040;-71
2023/05/22 04:14:08;;;;;;;14.82;10.80;;;;;;;14.65;52.80;101525.03;5065805;28;20456;-71
2023/05/22 04:16:34;;;;;;;14.82;11.23;;;;;;;14.60;52.90;101520.91;5043225;28;20046;-71
2023/05/22 04:19:02;;;;;;;14.45;10.40;;;;;;;14.36;53.44;101524.56;5067819;28;20051;-69
2023/05/22 04:21:28;;;;;;;17.92;12.15;;;;;;;14.37;52.90;101525.44;5069503;28;20043;-70
2023/05/22 04:23:54;;;;;;;22.50;11.23;;;;;;;14.19;53.57;101537.63;5067708;28;20521;-70
2023/05/22 04:26:19;;;;;;;13.57;10.40;;;;;;;14.02;54.21;101534.91;5063788;28;20035;-70
2023/05/22 04:28:48;;;;;;;18.15;11.52;;;;;;;14.26;53.31;101532.97;5066664;27;20084;-69
2023/05/22 04:31:13;;;;;;;14.40;9.65;;;;;;;14.22;53.66;101536.63;5101709;27;20024;-70
2023/05/22 04:33:39;;;;;;;13.48;9.52;;;;;;;14.24;53.34;101538.28;5051057;28;20029;-69
2023/05/22 04:36:05;;;;;;;19.33;10.85;;;;;;;14.30;53.38;101540.63;5069862;28;20546;-71
2023/05/22 04:38:35;;;;;;;13.65;10.80;;;;;;;14.40;53.48;101543.69;5068593;27;20128;-69
2023/05/22 04:41:02;;;;;;;15.48;10.90;;;;;;;14.47;53.19;101546.91;5090146;27;20032;-71
2023/05/22 04:43:28;;;;;;;16.50;10.95;;;;;;;14.47;53.14;101552.19;5081913;27;20089;-71
2023/05/22 04:45:57;;;;;;;18.55;10.55;;;;;;;14.27;53.34;101550.41;5061637;28;20124;-73
2023/05/22 04:48:22;;;;;;;12.52;9.57;;;;;;;14.28;53.54;101553.00;5061295;28;20464;-70
2023/05/22 04:50:49;;;;;;;22.83;11.93;;;;;;;14.03;54.10;101557.63;5061388;28;20035;-70
2023/05/22 04:53:15;;;;;;;13.55;10.75;;;;;;;14.14;53.59;101547.47;5059519;27;20607;-74
2023/05/22 04:55:41;;;;;;;15.13;11.32;;;;;;;13.89;54.06;101551.19;5044054;28;20035;-73
2023/05/22 04:58:06;;;;;;;20.20;11.55;;;;;;;13.98;54.04;101551.72;5060215;28;20043;-72
2023/05/22 05:00:32;;;;;;;18.13;11.77;;;;;;;14.13;52.88;101543.16;5063335;28;20114;-71
2023/05/22 05:02:59;;;;;;;15.13;10.57;;;;;;;13.88;54.24;101544.22;5058242;28;20071;-73
2023/05/22 05:05:24;;;;;;;18.17;11.32;;;;;;;14.20;53.34;101552.47;5042837;28;20614;-72
2023/05/22 05:07:52;;;;;;;18.25;11.20;;;;;;;14.18;53.34;101550.84;5060015;28;20159;-73
2023/05/22 05:10:18;;;;;;;18.38;11.07;;;;;;;13.89;54.37;101540.66;5045933;28;20024;-71
2023/05/22 05:12:44;;;;;;;18.35;11.00;;;;;;;13.99;53.90;101540.28;5059569;28;20047;-70
2023/05/22 05:15:10;;;;;;;18.58;11.43;;;;;;;14.04;53.78;101541.78;5048996;28;20028;-72
2023/05/22 05:17:35;;;;;;;14.23;10.65;;;;;;;14.09;53.56;101536.31;5059672;27;20036;-71
2023/05/22 05:20:04;;;;;;;16.85;10.98;;;;;;;14.06;53.27;101536.47;5051368;28;20145;-71
2023/05/22 05:22:30;;;;;;;21.83;11.13;;;;;;;13.84;53.90;101537.41;5058652;27;20024;-72
2023/05/22 05:24:56;;;;;;;15.05;11.23;;;;;;;13.87;53.60;101537.25;5066571;28;20038;-71
2023/05/22 05:27:22;;;;;;;19.63;11.95;;;;;;;13.66;54.21;101530.31;5065696;27;20029;-72
2023/05/22 05:29:48;;;;;;;20.35;12.48;;;;;;;13.33;54.82;101543.91;5059826;28;20063;-72
2023/05/22 05:32:37;;;;;;;17.15;12.10;;;;;;;13.66;54.38;101533.78;5054233;27;20040;-72
2023/05/22 05:35:21;;;;;;;23.95;11.70;;;;;;;13.72;53.95;101532.69;5058239;28;20561;-71
2023/05/22 05:38:00;;;;;;;24.75;12.07;;;;;;;13.95;53.54;101534.31;5060952;28;20050;-72
2023/05/22 05:40:27;;;;;;;16.45;11.88;;;;;;;14.10;52.75;101535.41;5061442;28;20408;-71
2023/05/22 05:42:52;;;;;;;15.23;11.43;;;;;;;14.13;53.00;101545.78;5053314;28;20043;-71
2023/05/22 05:45:22;;;;;;;26.80;11.73;;;;;;;13.81;53.88;101541.91;5063747;28;20059;-71
2023/05/22 05:47:47;;;;;;;22.42;11.85;;;;;;;13.81;53.49;101552.44;5069822;28;20055;-71
2023/05/22 05:50:14;;;;;;;24.83;13.38;;;;;;;13.86;53.60;101553.09;5074947;28;20118;-71
2023/05/22 05:52:40;;;;;;;17.77;11.95;;;;;;;13.94;52.43;101554.50;5063175;28;20033;-70
2023/05/22 05:55:10;;;;;;;19.88;11.48;;;;;;;13.87;52.64;101553.03;5067185;28;20038;-71
2023/05/22 05:57:36;;;;;;;20.30;10.77;;;;;;;14.09;52.12;101545.06;5059037;28;20045;-71
2023/05/22 06:00:07;;;;;;;19.92;11.85;;;;;;;14.10;52.22;101553.81;5060617;28;20489;-70
2023/05/22 06:02:40;;;;;;;20.80;11.52;;;;;;;14.10;52.65;101556.44;5055953;27;20051;-72
2023/05/22 06:05:12;;;;;;;;;;;;;;;14.14;52.65;101560.63;5074753;27;20024;-70
2023/05/22 06:07:39;;;;;;;16.75;10.63;;;;;;;14.16;52.02;101564.03;5058261;28;19916;-72
2023/05/22 06:10:08;;;;;;;21.50;9.65;;;;;;;14.09;52.31;101567.88;5061726;28;20127;-70
2023/05/22 06:12:39;;;;;;;16.75;11.10;;;;;;;14.07;52.41;101570.56;5049996;28;20436;-71
2023/05/22 06:15:06;;;;;;;24.30;11.43;;;;;;;14.22;52.20;101571.66;5041019;28;20305;-71
2023/05/22 06:17:33;;;;;;;21.42;11.10;;;;;;;13.98;52.47;101568.31;5040939;27;20632;-70
2023/05/22 06:19:59;;;;;;;20.00;11.52;;;;;;;13.96;52.35;101570.16;5082174;28;20056;-72
2023/05/22 06:22:25;;;;;;;18.27;11.60;;;;;;;14.20;52.08;101570.88;5058440;28;20182;-71
2023/05/22 06:24:55;;;;;;;22.10;12.25;;;;;;;14.18;52.00;101570.09;5058538;28;20088;-70
2023/05/22 06:27:26;;;;;;;21.27;11.85;;;;;;;14.18;52.13;101556.94;5055814;28;20442;-70
2023/05/22 06:29:52;;;;;;;16.23;10.40;;;;;;;14.50;51.77;101570.44;5038133;28;20077;-71
2023/05/22 06:32:18;;;;;;;19.08;11.10;;;;;;;14.34;52.00;101570.25;5056605;28;20158;-72
2023/05/22 06:34:47;;;;;;;16.42;11.73;;;;;;;14.38;52.12;101568.34;5046830;28;20092;-71
2023/05/22 06:37:14;;;;;;;19.33;10.98;;;;;;;13.72;53.07;101575.56;5042245;28;20032;-71
2023/05/22 06:39:42;;;;;;;14.80;9.68;;;;;;;13.89;53.09;101587.97;5074619;27;20020;-71
2023/05/22 06:42:31;;;;;;;17.90;10.52;;;;;;;14.06;52.41;101586.41;5055656;27;20040;-71
2023/05/22 06:45:19;;;;;;;21.88;10.55;;;;;;;13.83;53.93;101587.38;5058378;28;20040;-71
2023/05/22 06:48:00;;;;;;;17.52;10.23;;;;;;;14.28;52.80;101583.69;5058726;28;20037;-71
2023/05/22 06:50:25;;;;;;;14.18;11.02;;;;;;;14.03;53.33;101583.91;5058670;28;20042;-70
2023/05/22 06:52:52;;;;;;;20.33;11.77;;;;;;;13.90;53.96;101589.69;5055355;28;20032;-71
2023/05/22 06:55:17;;;;;;;15.23;10.50;;;;;;;13.81;54.70;101597.97;5060254;28;20043;-70
2023/05/22 06:57:56;;;;;;;17.52;10.18;;;;;;;14.20;53.84;101602.41;5053945;28;20036;-70
2023/05/22 07:00:24;;;;;;;13.70;10.07;;;;;;;13.82;54.70;101602.28;5077884;28;20036;-70
2023/05/22 07:03:04;;;;;;;15.68;10.55;;;;;;;14.06;53.60;101599.56;5072031;27;20035;-72
2023/05/22 07:05:37;;;;;;;17.50;10.05;;;;;;;14.00;53.77;101605.06;5079309;28;20074;-71
2023/05/22 07:08:04;;;;;;;16.15;10.55;;;;;;;13.90;53.92;101605.47;5077678;28;20032;-71
2023/05/22 07:10:30;;;;;;;19.35;10.27;;;;;;;13.44;55.54;101577.59;5076655;28;20750;-71
2023/05/22 07:12:57;;;;;;;19.92;12.13;;;;;;;13.40;56.13;101579.47;5067064;28;20042;-71
2023/05/22 07:15:23;;;;;;;21.40;10.85;;;;;;;13.20;56.90;101598.66;5075081;28;20036;-70
2023/05/22 07:17:52;;;;;;;18.45;11.52;;;;;;;12.84;58.35;101588.69;5076861;28;20105;-70
2023/05/22 07:20:17;;;;;;;18.15;12.35;;;;;;;12.83;58.29;101605.34;5073761;28;20032;-71
2023/05/22 07:22:52;;;;;;;22.33;11.93;;;;;;;12.72;59.04;101602.28;5054568;28;21085;-70
2023/05/22 07:25:18;;;;;;;17.83;11.73;;;;;;;12.69;58.80;101603.25;5058901;28;20040;-71
2023/05/22 07:27:43;;;;;;;16.63;11.35;;;;;;;12.49;59.67;101568.97;5080246;27;20855;-70
2023/05/22 07:30:09;;;;;;;21.13;11.93;;;;;;;12.54;59.97;101566.22;5049916;28;20898;-71
2023/05/22 07:32:36;;;;;;;18.60;12.52;;;;;;;12.76;59.47;101590.75;5064185;28;20675;-70
2023/05/22 07:35:03;;;;;;;22.05;12.07;;;;;;;12.90;59.16;101608.59;5043308;28;20119;-70
2023/05/22 07:37:30;;;;;;;18.98;11.77;;;;;;;12.72;59.40;101580.44;5057356;28;20032;-71
2023/05/22 07:39:56;;;;;;;23.17;11.77;;;;;;;12.98;59.18;101596.03;5055922;28;20507;-69
2023/05/22 07:42:22;;;;;;;21.23;12.93;;;;;;;12.82;59.36;101600.16;5057187;28;20077;-70
2023/05/22 07:44:52;;;;;;;19.85;11.82;;;;;;;12.66;59.58;101586.72;5064361;28;20086;-69
2023/05/22 07:47:19;;;;;;;17.48;11.98;;;;;;;12.89;59.38;101605.13;5047433;27;20035;-69
2023/05/22 07:49:45;;;;;;;19.83;11.93;;;;;;;12.89;58.91;101604.25;5059692;28;20032;-69
2023/05/22 07:52:11;;;;;;;15.15;11.00;;;;;;;12.87;58.73;101606.06;5056936;28;20042;-71
2023/05/22 07:54:38;;;;;;;15.98;10.90;;;;;;;13.18;58.56;101599.63;5077052;27;20448;-71
2023/05/22 07:57:06;;;;;;;14.45;11.25;;;;;;;13.16;58.45;101594.47;5059265;28;20035;-69
2023/05/22 07:59:36;;;;;;;15.80;11.50;;;;;;;13.02;58.90;101587.13;5063155;28;20024;-71
2023/05/22 08:02:02;;;;;;;19.75;11.23;;;;;;;13.15;58.32;101586.66;5062216;28;20082;-69
2023/05/22 08:04:28;;;;;;;17.38;12.18;;;;;;;12.93;58.73;101584.84;5059982;28;20348;-69
2023/05/22 08:06:54;;;;;;;17.23;10.55;;;;;;;13.10;58.43;101592.06;5061036;28;20044;-70
2023/05/22 08:09:20;;;;;;;16.83;10.50;;;;;;;12.93;58.98;101591.88;5059393;28;20071;-70
2023/05/22 08:11:46;;;;;;;16.00;11.20;;;;;;;13.21;58.44;101591.66;5060559;28;20063;-69
2023/05/22 08:14:11;;;;;;;18.58;11.18;;;;;;;13.36;57.55;101585.81;5061603;28;20115;-71
2023/05/22 08:16:37;;;;;;;14.38;11.30;;;;;;;13.43;57.47;101589.00;5060945;28;20160;-70
2023/05/22 08:19:02;;;;;;;15.45;10.30;;;;;;;13.48;57.74;101594.94;5061509;28;20040;-71
2023/05/22 08:21:28;;;;;;;20.05;11.10;;;;;;;13.29;58.26;101589.56;5060558;28;20035;-72
2023/05/22 08:23:53;;;;;;;15.57;9.98;;;;;;;13.28;57.77;101591.34;5060571;28;20068;-70
2023/05/22 08:26:19;;;;;;;16.15;9.85;;;;;;;13.34;57.64;101590.25;5060985;28;20090;-72
2023/05/22 08:28:44;;;;;;;15.00;10.88;;;;;;;13.42;57.44;101588.16;5060740;28;20032;-71
2023/05/22 08:31:10;;;;;;;12.50;10.23;;;;;;;13.17;58.21;101574.31;5063760;28;20032;-71
2023/05/22 08:33:36;;;;;;;17.13;11.07;;;;;;;13.40;57.58;101566.34;5060145;28;20044;-70
2023/05/22 08:36:01;;;;;;;17.35;10.55;;;;;;;13.46;57.11;101567.88;5063545;28;20043;-71
2023/05/22 08:38:27;;;;;;;14.85;9.80;;;;;;;13.60;56.89;101564.72;5060283;28;20048;-71
2023/05/22 08:40:56;;;;;;;15.90;10.40;;;;;;;13.77;56.54;101561.38;5062266;28;20038;-71
2023/05/22 08:43:22;;;;;;;14.27;9.27;;;;;;;14.17;55.28;101560.50;5061163;28;20657;-71
2023/05/22 08:46:03;;;;;;;19.83;9.82;;;;;;;14.27;55.28;101555.69;5061297;28;20553;-72
2023/05/22 08:48:33;;;;;;;13.65;9.00;;;;;;;14.57;55.07;101548.22;5059556;27;20047;-71
2023/05/22 08:51:02;;;;;;;15.25;10.18;;;;;;;14.47;54.23;101550.41;5062455;28;20147;-71
2023/05/22 08:53:34;;;;;;;12.60;9.52;;;;;;;14.36;54.35;101556.09;5057024;28;20051;-72
2023/05/22 08:56:01;;;;;;;16.13;9.80;;;;;;;14.61;54.30;101573.44;5065119;28;20583;-70
2023/05/22 08:58:27;;;;;;;14.90;9.38;;;;;;;15.05;53.35;101565.22;5062719;28;20047;-70
2023/05/22 09:00:53;;;;;;;13.30;10.02;;;;;;;15.19;52.35;101556.66;5063842;28;21749;-70
2023/05/22 09:03:20;;;;;;;20.08;9.93;;;;;;;15.42;51.66;101555.59;5055122;28;20113;-72
2023/05/22 09:05:45;;;;;;;14.85;9.38;;;;;;;15.80;51.38;101553.63;5061404;28;20028;-71
2023/05/22 09:08:11;;;;;;;17.25;10.45;;;;;;;16.03;51.51;101554.25;5061603;28;20117;-72
2023/05/22 09:10:36;;;;;;;13.25;8.88;;;;;;;16.22;50.02;101543.59;5063555;28;20032;-72
2023/05/22 09:13:08;;;;;;;13.10;9.05;;;;;;;16.35;50.13;101555.19;5058018;27;20814;-72
2023/05/22 09:15:37;;;;;;;15.43;9.00;;;;;;;16.23;48.34;101542.66;5062332;28;20040;-71
2023/05/22 09:18:05;;;;;;;13.43;8.10;;;;;;;16.33;49.66;101543.88;5059142;28;20676;-72
2023/05/22 09:20:36;;;;;;;11.48;7.80;;;;;;;16.40;49.33;101541.75;5074053;27;20621;-71
2023/05/22 09:23:14;;;;;;;12.60;6.97;;;;;;;15.84;49.55;101538.53;5058959;28;20094;-70
2023/05/22 09:25:42;;;;;;;13.40;9.38;;;;;;;16.04;50.59;101534.00;5064725;28;20317;-71
2023/05/22 09:28:07;;;;;;;13.25;8.25;;;;;;;16.65;49.50;101529.88;5055438;28;20119;-72
2023/05/22 09:30:35;;;;;;;18.10;8.65;;;;;;;16.79;48.70;101530.81;5072412;27;20032;-71
2023/05/22 09:33:02;;;;;;;10.82;8.95;;;;;;;17.02;47.96;101534.81;5061227;28;20145;-71
2023/05/22 09:35:30;;;;;;;15.95;8.32;;;;;;;16.78;48.67;101531.75;5059439;28;20028;-73
2023/05/22 09:37:57;;;;;;;18.23;8.25;;;;;;;16.66;48.33;101527.13;5055204;28;20582;-71
2023/05/22 09:40:23;;;;;;;12.75;8.63;;;;;;;16.50;47.89;101528.91;5056646;28;20028;-72
2023/05/22 09:42:48;;;;;;;14.45;8.07;;;;;;;16.37;49.23;101537.47;5057904;27;20054;-72
2023/05/22 09:45:19;;;;;;;11.07;8.18;;;;;;;16.27;49.09;101544.19;5057319;28;20036;-71
2023/05/22 09:47:47;;;;;;;13.90;8.43;;;;;;;16.45;48.94;101549.44;5067048;28;20044;-70
2023/05/22 09:50:13;;;;;;;11.77;7.88;;;;;;;16.56;48.50;101554.97;5067243;28;20174;-72
2023/05/22 09:52:38;;;;;;;12.88;8.80;;;;;;;16.50;48.72;101542.09;5054059;28;20036;-71
2023/05/22 09:55:08;;;;;;;10.88;7.65;;;;;;;16.13;49.20;101538.78;5041714;28;20722;-72
2023/05/22 09:58:12;;;;;;;13.88;8.30;;;;;;;15.98;49.70;101536.00;5056104;28;20473;-70
2023/05/22 10:00:49;;;;;;;12.25;8.68;;;;;;;16.10;50.74;101541.59;5051284;28;20632;-71
2023/05/22 10:03:16;;;;;;;13.90;8.20;;;;;;;16.07;50.00;101553.16;5059634;28;20658;-69
2023/05/22 10:05:49;;;;;;;16.10;8.68;;;;;;;16.20;50.39;101561.28;5059586;28;20036;-71
2023/05/22 10:08:22;;;;;;;8.75;7.75;;;;;;;16.62;49.72;101567.81;5058529;28;20037;-70
2023/05/22 10:10:53;;;;;;;14.75;8.68;;;;;;;16.54;48.34;101570.03;5057389;28;20036;-71
2023/05/22 10:13:19;;;;;;;18.98;8.77;;;;;;;16.68;48.41;101572.75;5045886;28;20079;-73
2023/05/22 10:15:48;;;;;;;13.82;8.10;;;;;;;16.75;47.85;101568.88;5065114;28;20032;-71
2023/05/22 10:18:15;;;;;;;11.38;8.35;;;;;;;16.58;47.38;101574.22;5055480;28;20497;-73
2023/05/22 10:20:41;;;;;;;14.65;7.78;;;;;;;16.52;48.01;101569.25;5065619;28;20032;-71
2023/05/22 10:23:08;;;;;;;12.63;6.82;;;;;;;16.58;48.54;101563.66;5055835;27;20037;-72
2023/05/22 10:25:37;;;;;;;14.40;7.70;;;;;;;16.73;48.41;101560.19;5089396;27;20104;-72
2023/05/22 10:28:04;;;;;;;13.27;8.05;;;;;;;16.88;48.36;101561.13;5058553;28;20078;-71
2023/05/22 10:30:35;;;;;;;15.13;8.32;;;;;;;16.79;48.36;101559.84;5047046;28;20626;-72
2023/05/22 10:33:47;;;;;;;11.45;8.13;;;;;;;16.92;48.67;101548.63;5059180;28;20040;-71
2023/05/22 10:36:58;;;;;;;13.65;8.40;;;;;;;17.12;47.43;101550.13;5057662;28;20181;-71
2023/05/22 10:39:29;;;;;;;17.45;8.65;;;;;;;17.32;47.27;101551.63;5063959;28;20646;-73
2023/05/22 10:41:57;;;;;;;11.57;8.77;;;;;;;17.27;48.04;101543.09;5065280;28;20035;-72
2023/05/22 10:44:22;;;;;;;9.30;7.28;;;;;;;17.02;47.82;101534.81;5052772;27;20116;-73
2023/05/22 10:46:57;;;;;;;14.50;8.82;;;;;;;16.92;47.77;101540.69;5061531;28;20129;-73
2023/05/22 10:49:25;;;;;;;15.82;9.10;;;;;;;16.91;47.96;101546.91;5053386;27;20044;-72
2023/05/22 10:51:55;;;;;;;13.35;8.88;;;;;;;16.68;48.08;101545.53;5090644;27;20067;-73
2023/05/22 10:54:44;;;;;;;14.27;8.93;;;;;;;16.82;49.04;101549.13;5056115;28;20379;-72
2023/05/22 10:57:14;;;;;;;12.27;9.30;;;;;;;16.86;48.54;101554.22;5048354;28;20036;-71
2023/05/22 10:59:41;;;;;;;16.98;8.18;;;;;;;16.78;48.51;101550.25;5059059;28;20047;-71
2023/05/22 11:02:18;;;;;;;14.10;9.02;;;;;;;16.83;49.02;101542.91;5058057;28;20035;-72
2023/05/22 11:04:44;;;;;;;16.95;9.55;;;;;;;17.04;48.57;101547.91;5052755;28;20135;-72
2023/05/22 11:07:12;;;;;;;18.08;8.40;;;;;;;16.85;47.88;101541.97;5059766;28;20032;-72
2023/05/22 11:09:47;;;;;;;10.38;8.45;;;;;;;17.06;47.97;101535.47;5058178;28;20059;-72
2023/05/22 11:12:23;;;;;;;14.88;8.15;;;;;;;17.20;48.41;101524.09;5056189;28;20041;-73
2023/05/22 11:14:57;;;;;;;15.43;8.88;;;;;;;17.19;48.03;101520.63;5057119;28;20071;-71
2023/05/22 11:17:28;;;;;;;12.52;8.25;;;;;;;17.61;47.71;101513.78;5054668;27;20063;-73
2023/05/22 11:20:04;;;;;;;8.83;7.73;;;;;;;17.88;46.19;101504.28;5058046;28;20055;-73